Time;durP1;ratioP1;P1;durP2;ratioP2;P2;SDS_P1;SDS_P2;PMS_P1;PMS_P2;Temp;Humidity;BMP_temperature;BMP_pressure;BME280_temperature;BME280_humidity;BME280_pressure;Samples;Min_cycle;Max_cycle;Signal;HPM_P1;HPM_P2
2022/01/02 00:00:25;;;;;;;12.60;10.07;;;6.10;1.00;;;;;;6127664;23;20002;-87
2022/01/02 00:02:52;;;;;;;13.02;9.52;;;6.40;1.00;;;;;;6126117;23;20329;-87
2022/01/02 00:05:22;;;;;;;12.55;9.90;;;6.40;1.00;;;;;;6124660;23;20016;-87
2022/01/02 00:08:04;;;;;;;14.10;9.80;;;6.10;1.00;;;;;;6126968;23;20006;-87
2022/01/02 00:10:51;;;;;;;13.65;10.35;;;6.00;1.00;;;;;;6127162;23;20010;-87
2022/01/02 00:13:32;;;;;;;13.60;10.23;;;6.30;1.00;;;;;;6126030;23;20037;-86
2022/01/02 00:16:06;;;;;;;13.48;9.43;;;6.20;1.00;;;;;;6126821;23;20532;-87
2022/01/02 00:18:38;;;;;;;15.23;9.55;;;6.10;1.00;;;;;;6126154;23;20345;-87
2022/01/02 00:21:10;;;;;;;12.20;9.60;;;6.00;1.00;;;;;;6127288;23;20016;-87
2022/01/02 00:23:58;;;;;;;13.30;9.63;;;5.90;1.00;;;;;;6126327;23;20089;-87
2022/01/02 00:26:34;;;;;;;13.88;9.88;;;6.10;1.00;;;;;;6126217;23;20013;-87
2022/01/02 00:29:03;;;;;;;14.55;10.45;;;6.60;1.00;;;;;;6126828;23;20006;-87
2022/01/02 00:31:30;;;;;;;16.15;11.30;;;6.50;1.00;;;;;;6125692;23;20452;-87
2022/01/02 00:33:56;;;;;;;14.52;10.27;;;5.90;1.00;;;;;;6126482;23;20018;-87
2022/01/02 00:36:22;;;;;;;12.15;8.88;;;6.50;1.00;;;;;;6126462;23;20005;-87
2022/01/02 00:38:47;;;;;;;10.90;8.82;;;6.40;1.00;;;;;;6125973;23;20002;-87
2022/01/02 00:41:21;;;;;;;12.15;9.55;;;6.70;1.00;;;;;;6126051;23;20006;-87
2022/01/02 00:43:52;;;;;;;12.73;9.65;;;6.30;1.00;;;;;;6126175;23;20006;-87
2022/01/02 00:46:21;;;;;;;12.68;8.82;;;6.30;1.00;;;;;;6125827;23;20002;-86
2022/01/02 00:48:47;;;;;;;10.93;8.35;;;6.30;1.00;;;;;;6126126;23;20344;-88
2022/01/02 00:51:31;;;;;;;14.93;9.55;;;6.20;1.00;;;;;;6126922;23;20006;-87
2022/01/02 00:54:01;;;;;;;10.68;7.28;;;6.70;1.00;;;;;;6126450;23;20038;-86
2022/01/02 00:56:29;;;;;;;8.82;7.00;;;6.40;1.00;;;;;;6125651;23;20002;-87
2022/01/02 00:59:00;;;;;;;10.35;7.55;;;5.80;1.00;;;;;;6126040;23;20081;-87
2022/01/02 01:01:33;;;;;;;9.95;7.00;;;5.20;1.00;;;;;;6099697;23;20002;-87
2022/01/02 01:03:59;;;;;;;10.68;7.95;;;5.30;1.00;;;;;;6126365;23;20016;-87
2022/01/02 01:06:32;;;;;;;13.45;8.70;;;6.10;1.00;;;;;;6126058;23;20026;-87
2022/01/02 01:09:01;;;;;;;12.68;9.35;;;5.40;1.00;;;;;;6126724;23;20038;-87
2022/01/02 01:11:28;;;;;;;11.38;8.80;;;5.80;1.00;;;;;;6098912;23;20322;-87
2022/01/02 01:13:55;;;;;;;13.43;8.52;;;5.10;1.00;;;;;;6126067;23;20029;-87
2022/01/02 01:16:21;;;;;;;12.63;8.93;;;5.80;1.00;;;;;;6125370;23;19998;-87
2022/01/02 01:18:48;;;;;;;12.05;7.90;;;5.70;1.00;;;;;;6125709;23;20013;-87
2022/01/02 01:21:14;;;;;;;12.20;8.90;;;5.50;1.00;;;;;;6126250;23;19997;-87
2022/01/02 01:23:40;;;;;;;14.13;9.82;;;5.80;1.00;;;;;;6126050;23;20029;-87
2022/01/02 01:26:09;;;;;;;13.52;9.55;;;5.90;1.00;;;;;;6125856;23;20002;-87
2022/01/02 01:28:34;;;;;;;12.82;9.40;;;5.80;1.00;;;;;;6126099;23;20069;-87
2022/01/02 01:31:00;;;;;;;25.60;15.65;;;6.00;1.00;;;;;;6099251;23;20434;-87
2022/01/02 01:33:26;;;;;;;12.18;9.32;;;5.50;1.00;;;;;;6126248;23;20010;-87
2022/01/02 01:35:51;;;;;;;14.48;9.68;;;5.90;1.00;;;;;;6125694;23;20029;-87
2022/01/02 01:38:17;;;;;;;10.23;7.32;;;5.40;1.00;;;;;;6125616;23;20010;-87
2022/01/02 01:40:51;;;;;;;10.55;7.07;;;6.10;1.00;;;;;;6125981;23;20006;-86
2022/01/02 01:43:17;;;;;;;11.68;7.47;;;5.90;1.00;;;;;;6099779;23;20010;-87
2022/01/02 01:45:43;;;;;;;10.10;7.82;;;6.00;1.00;;;;;;6125463;23;20369;-87
2022/01/02 01:48:08;;;;;;;12.50;8.18;;;5.90;1.00;;;;;;6125198;23;20005;-87
2022/01/02 01:50:39;;;;;;;10.40;7.72;;;5.90;1.00;;;;;;6125840;23;20066;-87
2022/01/02 01:53:06;;;;;;;10.80;7.38;;;6.00;1.00;;;;;;6125564;23;20014;-87
2022/01/02 01:55:33;;;;;;;12.90;7.47;;;6.00;1.00;;;;;;6125658;23;20013;-87
2022/01/02 01:58:00;;;;;;;9.93;7.43;;;5.90;1.00;;;;;;6125541;23;20002;-87
2022/01/02 02:00:26;;;;;;;9.45;7.30;;;6.10;1.00;;;;;;6125231;23;20443;-87
2022/01/02 02:02:54;;;;;;;10.52;7.55;;;5.70;1.00;;;;;;6125829;23;20088;-86
2022/01/02 02:05:20;;;;;;;10.32;7.22;;;5.90;1.00;;;;;;6125126;23;20016;-87
2022/01/02 02:07:46;;;;;;;11.90;8.18;;;5.50;1.00;;;;;;6125461;23;20353;-87
2022/01/02 02:10:26;;;;;;;12.00;7.70;;;6.00;1.00;;;;;;6125424;23;20480;-87
2022/01/02 02:12:58;;;;;;;11.30;6.57;;;5.40;1.00;;;;;;6125521;23;20006;-87
2022/01/02 02:15:25;;;;;;;11.10;7.07;;;5.40;1.00;;;;;;6124895;23;20028;-87
2022/01/02 02:17:51;;;;;;;10.93;7.10;;;5.80;1.00;;;;;;6125029;23;20005;-87
2022/01/02 02:20:29;;;;;;;8.63;6.88;;;5.90;1.00;;;;;;6125481;23;20010;-87
2022/01/02 02:22:56;;;;;;;8.63;6.40;;;5.50;1.00;;;;;;6125249;23;20073;-87
2022/01/02 02:25:24;;;;;;;9.23;5.72;;;5.40;1.00;;;;;;6125529;23;20006;-87
2022/01/02 02:27:55;;;;;;;10.20;6.65;;;5.10;1.00;;;;;;6125382;23;20003;-87
2022/01/02 02:30:21;;;;;;;9.38;6.90;;;5.20;1.00;;;;;;6124634;23;20073;-87
2022/01/02 02:32:47;;;;;;;9.15;6.05;;;5.30;1.00;;;;;;6124494;23;20009;-87
2022/01/02 02:35:14;;;;;;;8.77;6.25;;;5.40;1.00;;;;;;6126088;23;20013;-87
2022/01/02 02:37:42;;;;;;;8.30;6.00;;;5.20;1.00;;;;;;6124964;23;19998;-86
2022/01/02 02:40:12;;;;;;;10.65;5.88;;;5.30;1.00;;;;;;6125129;23;20017;-87
2022/01/02 02:42:57;;;;;;;7.45;5.53;;;5.20;1.00;;;;;;6099872;23;20380;-87
2022/01/02 02:51:05;;;;;;;10.23;7.28;;;5.40;1.00;;;;;;6124853;23;20153;-87
2022/01/02 02:53:35;;;;;;;7.63;5.95;;;5.50;1.00;;;;;;6125129;23;20010;-87
2022/01/02 02:56:02;;;;;;;7.00;5.35;;;5.20;1.00;;;;;;6126037;23;20041;-87
2022/01/02 03:00:59;;;;;;;8.98;5.80;;;4.90;1.00;;;;;;6125458;23;20441;-87
2022/01/02 03:03:25;;;;;;;7.30;5.68;;;4.90;1.00;;;;;;6124721;23;20012;-87
2022/01/02 03:05:51;;;;;;;8.20;5.82;;;5.00;1.00;;;;;;6125096;23;20002;-87
2022/01/02 03:08:17;;;;;;;8.73;5.88;;;5.50;1.00;;;;;;6098513;23;20422;-87
2022/01/02 03:10:42;;;;;;;7.68;5.80;;;5.10;1.00;;;;;;6125006;23;20077;-87
2022/01/02 03:13:08;;;;;;;13.20;6.90;;;4.60;1.00;;;;;;6126015;23;20493;-87
2022/01/02 03:15:34;;;;;;;8.50;6.22;;;5.50;1.00;;;;;;6124840;23;20363;-87
2022/01/02 03:17:59;;;;;;;8.65;6.72;;;5.20;1.00;;;;;;6124833;23;20013;-87
2022/01/02 03:20:25;;;;;;;9.77;6.75;;;5.60;1.00;;;;;;6099174;23;20004;-87
2022/01/02 03:22:51;;;;;;;10.40;7.20;;;5.60;1.00;;;;;;6124255;23;20006;-87
2022/01/02 03:25:17;;;;;;;7.70;6.35;;;5.50;1.00;;;;;;6124816;23;20009;-87
2022/01/02 03:27:44;;;;;;;10.77;6.78;;;5.30;1.00;;;;;;6125315;23;20030;-87
2022/01/02 03:30:11;;;;;;;9.25;6.68;;;5.00;1.00;;;;;;6124949;23;20023;-87
2022/01/02 03:32:37;;;;;;;10.45;6.47;;;5.00;1.00;;;;;;6099699;23;20382;-87
2022/01/02 03:35:04;;;;;;;9.48;6.53;;;5.60;1.00;;;;;;6125441;23;20042;-87
2022/01/02 03:37:32;;;;;;;10.38;6.93;;;5.30;1.00;;;;;;6124418;23;20329;-86
2022/01/02 03:39:58;;;;;;;8.68;6.38;;;5.50;1.00;;;;;;6125482;23;20032;-87
2022/01/02 03:42:24;;;;;;;8.95;6.68;;;5.70;1.00;;;;;;6124976;23;20026;-86
2022/01/02 03:44:50;;;;;;;9.93;6.40;;;6.20;1.00;;;;;;6124931;23;20009;-87
2022/01/02 03:47:16;;;;;;;8.48;6.35;;;6.30;1.00;;;;;;6124792;23;20102;-86
2022/01/02 03:49:41;;;;;;;9.20;5.90;;;6.30;1.00;;;;;;6125454;23;20006;-87
2022/01/02 03:52:08;;;;;;;8.27;6.03;;;6.20;1.00;;;;;;6124578;23;20030;-87
2022/01/02 03:54:33;;;;;;;7.50;5.78;;;6.10;1.00;;;;;;6124985;23;20093;-86
2022/01/02 03:56:59;;;;;;;8.80;5.68;;;6.40;1.00;;;;;;6125101;23;20037;-86
2022/01/02 03:59:25;;;;;;;7.82;5.63;;;6.90;1.00;;;;;;6126480;23;20420;-86
2022/01/02 04:01:51;;;;;;;7.93;5.68;;;6.40;1.00;;;;;;6126451;23;20083;-87
2022/01/02 04:04:17;;;;;;;7.03;5.30;;;6.40;1.00;;;;;;6126790;23;20006;-87
2022/01/02 04:06:42;;;;;;;7.68;5.72;;;6.20;1.00;;;;;;6126403;23;20013;-87
2022/01/02 04:09:08;;;;;;;9.90;7.40;;;6.10;1.00;;;;;;6126428;23;20054;-87
2022/01/02 04:11:34;;;;;;;11.52;8.52;;;6.30;1.00;;;;;;6126656;23;20429;-86
2022/01/02 04:14:00;;;;;;;11.80;8.23;;;5.60;1.00;;;;;;6126153;23;20021;-87
2022/01/02 04:16:26;;;;;;;11.02;7.63;;;5.50;1.00;;;;;;6126580;23;20038;-87
2022/01/02 04:18:52;;;;;;;12.93;9.10;;;6.10;1.00;;;;;;6126380;23;20086;-87
2022/01/02 04:21:17;;;;;;;11.55;8.80;;;5.90;1.00;;;;;;6125831;23;19998;-87
2022/01/02 04:23:43;;;;;;;9.88;7.45;;;5.80;1.00;;;;;;6126217;23;20010;-87
2022/01/02 04:26:08;;;;;;;9.27;6.85;;;5.50;1.00;;;;;;6126774;23;20337;-86
2022/01/02 04:28:34;;;;;;;10.52;7.85;;;5.60;1.00;;;;;;6126374;23;20425;-87
2022/01/02 04:31:00;;;;;;;11.05;7.88;;;5.20;1.00;;;;;;6126204;23;20008;-87
2022/01/02 04:33:26;;;;;;;9.82;7.78;;;5.00;1.00;;;;;;6125715;23;20050;-86
2022/01/02 04:35:52;;;;;;;9.45;7.32;;;5.00;1.00;;;;;;6126213;23;20082;-86
2022/01/02 04:38:18;;;;;;;8.73;6.40;;;5.40;1.00;;;;;;6125772;23;19999;-87
2022/01/02 04:40:43;;;;;;;11.95;7.32;;;5.40;1.00;;;;;;6126328;23;20013;-86
2022/01/02 04:43:09;;;;;;;9.73;6.82;;;5.40;1.00;;;;;;6126218;23;20433;-87
2022/01/02 04:45:35;;;;;;;7.95;5.90;;;5.40;1.00;;;;;;6126478;23;20009;-87
2022/01/02 04:48:01;;;;;;;9.63;5.90;;;5.80;1.00;;;;;;6126321;23;20071;-87
2022/01/02 04:50:26;;;;;;;8.25;6.28;;;5.60;1.00;;;;;;6126273;23;19998;-87
2022/01/02 04:52:52;;;;;;;7.95;5.50;;;6.30;1.00;;;;;;6124976;23;20006;-86
2022/01/02 04:55:18;;;;;;;7.03;5.72;;;5.70;1.00;;;;;;6126320;23;20006;-86
2022/01/02 04:57:44;;;;;;;6.00;5.05;;;5.50;1.00;;;;;;6126664;23;20452;-86
2022/01/02 05:00:11;;;;;;;6.68;4.97;;;5.50;1.00;;;;;;6126103;23;20014;-86
2022/01/02 05:02:36;;;;;;;7.28;5.18;;;5.90;1.00;;;;;;6125926;23;20002;-86
2022/01/02 05:05:02;;;;;;;7.70;5.60;;;6.60;1.00;;;;;;6126202;23;19998;-86
2022/01/02 05:07:28;;;;;;;8.15;5.38;;;6.30;1.00;;;;;;6125222;23;20010;-86
2022/01/02 05:09:54;;;;;;;9.15;5.82;;;7.00;1.00;;;;;;6125455;23;20069;-87
2022/01/02 05:12:19;;;;;;;6.88;5.28;;;6.50;1.00;;;;;;6126542;23;20057;-87
2022/01/02 05:14:45;;;;;;;6.75;4.95;;;6.80;1.00;;;;;;6125548;23;20021;-86
2022/01/02 05:17:11;;;;;;;6.15;4.72;;;6.60;1.00;;;;;;6125622;23;20433;-87
2022/01/02 05:19:37;;;;;;;8.02;5.13;;;6.90;1.00;;;;;;6125929;23;20005;-87
2022/01/02 05:22:03;;;;;;;6.40;5.10;;;6.90;1.00;;;;;;6125556;23;20462;-86
2022/01/02 05:24:28;;;;;;;8.40;5.40;;;6.50;1.00;;;;;;6125814;23;20162;-87
2022/01/02 05:26:55;;;;;;;7.50;5.40;;;7.20;1.00;;;;;;6126638;23;19998;-86
2022/01/02 05:29:24;;;;;;;9.43;6.53;;;6.80;1.00;;;;;;6099688;23;20017;-87
2022/01/02 05:31:49;;;;;;;10.07;6.30;;;7.20;1.00;;;;;;6125416;23;20325;-86
2022/01/02 05:34:16;;;;;;;10.15;6.25;;;6.70;1.00;;;;;;6125979;23;20018;-86
2022/01/02 05:36:48;;;;;;;8.43;5.60;;;7.40;1.00;;;;;;6126190;23;20009;-86
2022/01/02 05:39:15;;;;;;;6.95;5.05;;;7.30;1.00;;;;;;6125224;23;20013;-86
2022/01/02 05:41:41;;;;;;;5.97;4.85;;;7.50;1.00;;;;;;6126089;23;20057;-86
2022/01/02 05:44:06;;;;;;;5.90;4.70;;;7.00;1.00;;;;;;6125308;23;20006;-87
2022/01/02 05:46:32;;;;;;;6.45;4.85;;;7.30;1.00;;;;;;6125240;23;20028;-86
2022/01/02 05:48:57;;;;;;;6.15;4.57;;;7.20;1.00;;;;;;6126280;23;20034;-87
2022/01/02 05:51:23;;;;;;;5.82;4.50;;;7.90;1.00;;;;;;6125395;23;20068;-87
2022/01/02 05:53:49;;;;;;;6.40;5.20;;;7.50;1.00;;;;;;6125642;23;20541;-87
2022/01/02 05:56:14;;;;;;;8.75;5.53;;;7.50;1.00;;;;;;6125870;23;20485;-87
2022/01/02 05:58:40;;;;;;;6.75;5.20;;;6.90;1.00;;;;;;6126128;23;20081;-86
2022/01/02 06:01:06;;;;;;;6.05;4.65;;;7.00;1.00;;;;;;6124921;23;20055;-86
2022/01/02 06:03:31;;;;;;;5.50;4.75;;;7.40;1.00;;;;;;6125880;23;20087;-86
2022/01/02 06:05:57;;;;;;;5.85;5.00;;;6.80;1.00;;;;;;6124968;23;20002;-87
2022/01/02 06:08:22;;;;;;;6.93;4.93;;;7.20;1.00;;;;;;6125664;23;19998;-86
2022/01/02 06:10:48;;;;;;;6.57;4.85;;;6.70;1.00;;;;;;6125693;23;20009;-86
2022/01/02 06:13:14;;;;;;;6.50;5.18;;;6.50;1.00;;;;;;6124914;23;20085;-87
2022/01/02 06:15:39;;;;;;;10.30;5.57;;;6.20;1.00;;;;;;6125508;23;20088;-87
2022/01/02 06:18:05;;;;;;;8.45;5.90;;;6.50;1.00;;;;;;6125676;23;20057;-87
2022/01/02 06:20:30;;;;;;;7.10;5.28;;;6.70;1.00;;;;;;6125542;23;20009;-86
2022/01/02 06:22:56;;;;;;;7.57;5.13;;;6.60;1.00;;;;;;6125257;23;20072;-87
2022/01/02 06:25:22;;;;;;;6.90;4.35;;;6.50;1.00;;;;;;6125364;23;20385;-87
2022/01/02 06:27:49;;;;;;;5.20;4.45;;;6.70;1.00;;;;;;6125620;23;20013;-86
2022/01/02 06:30:15;;;;;;;6.57;4.57;;;6.70;1.00;;;;;;6124962;23;20085;-87
2022/01/02 06:32:41;;;;;;;5.70;4.38;;;7.20;1.00;;;;;;6125682;23;20041;-87
2022/01/02 06:35:07;;;;;;;6.70;4.75;;;7.70;1.00;;;;;;6125705;23;20101;-87
2022/01/02 06:37:33;;;;;;;6.28;4.70;;;6.60;1.00;;;;;;6124430;23;19998;-86
2022/01/02 06:39:58;;;;;;;6.15;4.70;;;7.00;1.00;;;;;;6124926;23;20060;-87
2022/01/02 06:42:24;;;;;;;5.50;4.50;;;6.50;1.00;;;;;;6125635;23;20012;-87
2022/01/02 06:44:49;;;;;;;4.93;4.30;;;6.60;1.00;;;;;;6125004;23;20037;-87
2022/01/02 06:47:15;;;;;;;5.75;4.72;;;7.10;1.00;;;;;;6125451;23;20013;-87
2022/01/02 06:49:41;;;;;;;5.10;4.40;;;7.20;1.00;;;;;;6124940;23;20010;-86
2022/01/02 06:52:08;;;;;;;5.78;4.47;;;7.20;1.00;;;;;;6124252;23;20077;-87
2022/01/02 06:54:34;;;;;;;6.00;4.57;;;7.10;1.00;;;;;;6124881;23;20018;-87
2022/01/02 06:56:59;;;;;;;5.05;4.47;;;7.80;1.00;;;;;;6125913;23;20069;-87
2022/01/02 06:59:25;;;;;;;8.23;4.93;;;7.70;1.00;;;;;;6124887;23;20446;-86
2022/01/02 07:01:51;;;;;;;5.35;4.50;;;7.50;1.00;;;;;;6125077;23;20030;-87
2022/01/02 07:04:17;;;;;;;6.70;4.60;;;7.70;1.00;;;;;;6125494;23;20093;-86
2022/01/02 07:06:42;;;;;;;5.60;4.50;;;8.00;1.00;;;;;;6124305;23;20002;-87
2022/01/02 07:09:08;;;;;;;7.30;4.88;;;7.50;1.00;;;;;;6124894;23;20085;-87
2022/01/02 07:11:33;;;;;;;5.88;4.85;;;7.20;1.00;;;;;;6125355;23;20012;-87
2022/01/02 07:13:59;;;;;;;5.68;4.93;;;7.70;1.00;;;;;;6124261;23;20020;-87
2022/01/02 07:16:25;;;;;;;5.07;4.55;;;7.20;1.00;;;;;;6125629;23;20002;-86
2022/01/02 07:18:50;;;;;;;4.88;4.22;;;7.40;1.00;;;;;;6125147;23;20021;-86
2022/01/02 07:21:17;;;;;;;4.97;4.47;;;7.10;1.00;;;;;;6124705;23;20009;-87
2022/01/02 07:23:44;;;;;;;6.32;4.45;;;7.60;1.00;;;;;;6125102;23;20006;-87
2022/01/02 07:26:09;;;;;;;5.18;4.57;;;7.20;1.00;;;;;;6124938;23;20072;-86
2022/01/02 07:28:35;;;;;;;6.25;4.55;;;7.30;1.00;;;;;;6124603;23;20056;-87
2022/01/02 07:31:01;;;;;;;5.47;4.47;;;7.60;1.00;;;;;;6125601;23;20073;-87
2022/01/02 07:33:27;;;;;;;5.93;4.65;;;7.20;1.00;;;;;;6126646;23;20013;-87
2022/01/02 07:35:52;;;;;;;5.72;4.55;;;7.60;1.00;;;;;;6125519;23;20077;-86
2022/01/02 07:38:18;;;;;;;6.55;4.80;;;7.20;1.00;;;;;;6100642;23;20386;-86
2022/01/02 07:40:43;;;;;;;6.07;4.95;;;7.20;1.00;;;;;;6126812;23;20002;-85
2022/01/02 07:43:09;;;;;;;6.93;5.13;;;7.60;1.00;;;;;;6126987;23;20025;-87
2022/01/02 07:45:35;;;;;;;5.88;4.95;;;7.50;1.00;;;;;;6127594;23;20041;-86
2022/01/02 07:48:00;;;;;;;7.22;5.38;;;7.80;1.00;;;;;;6126491;23;20431;-86
2022/01/02 07:50:26;;;;;;;7.30;5.60;;;7.60;1.00;;;;;;6126265;23;20006;-87
2022/01/02 07:52:54;;;;;;;5.90;4.47;;;7.40;1.00;;;;;;6127313;23;20057;-86
2022/01/02 07:55:20;;;;;;;5.85;4.82;;;7.30;1.00;;;;;;6126219;23;20041;-87
2022/01/02 07:57:46;;;;;;;3.67;3.28;;;7.50;1.00;;;;;;6127313;23;20415;-87
2022/01/02 08:00:13;;;;;;;4.90;4.30;;;7.90;1.00;;;;;;6126964;23;20085;-87
2022/01/02 08:02:38;;;;;;;4.35;3.65;;;7.60;1.00;;;;;;6126909;23;19998;-87
2022/01/02 08:05:06;;;;;;;4.95;4.03;;;7.90;1.00;;;;;;6125772;23;20010;-86
2022/01/02 08:07:32;;;;;;;4.15;3.75;;;7.80;1.00;;;;;;6126539;23;20460;-86
2022/01/02 08:09:58;;;;;;;5.10;4.28;;;7.90;1.00;;;;;;6126435;23;20010;-87
2022/01/02 08:12:24;;;;;;;6.20;4.50;;;8.60;1.00;;;;;;6126548;23;20011;-86
2022/01/02 08:14:49;;;;;;;6.25;4.50;;;9.00;1.00;;;;;;6126819;23;20029;-87
2022/01/02 08:17:15;;;;;;;5.47;4.35;;;9.50;1.00;;;;;;6126303;23;19998;-87
2022/01/02 08:19:40;;;;;;;3.58;3.20;;;9.50;1.00;;;;;;6126579;23;20013;-87
2022/01/02 08:22:06;;;;;;;3.60;3.20;;;9.40;1.00;;;;;;6126459;23;20382;-87
2022/01/02 08:24:32;;;;;;;3.72;3.20;;;9.40;1.00;;;;;;6126252;23;20006;-87
2022/01/02 08:26:57;;;;;;;4.40;3.30;;;9.30;1.00;;;;;;6126457;23;20530;-87
2022/01/02 08:29:23;;;;;;;3.55;3.22;;;9.60;1.00;;;;;;6126131;23;20440;-86
2022/01/02 08:31:48;;;;;;;4.15;3.30;;;10.00;1.00;;;;;;6126402;23;20002;-87
2022/01/02 08:34:14;;;;;;;3.63;3.13;;;10.10;1.00;;;;;;6126856;23;20018;-87
2022/01/02 08:36:40;;;;;;;3.22;2.80;;;10.80;1.00;;;;;;6125143;23;20029;-87
2022/01/02 08:39:05;;;;;;;3.22;2.75;;;12.00;1.00;;;;;;6125807;23;20512;-87
2022/01/02 08:41:31;;;;;;;2.75;2.55;;;13.60;1.00;;;;;;6126351;23;20013;-87
2022/01/02 08:43:57;;;;;;;3.03;2.72;;;13.70;1.00;;;;;;6125703;23;20441;-86
2022/01/02 08:46:22;;;;;;;3.85;3.28;;;11.90;1.00;;;;;;6126638;23;20008;-86
2022/01/02 08:48:48;;;;;;;3.17;2.88;;;10.90;1.00;;;;;;6125805;23;20385;-87
2022/01/02 08:51:14;;;;;;;3.08;2.78;;;10.20;1.00;;;;;;6126429;23;20030;-87
2022/01/02 08:53:40;;;;;;;3.25;2.95;;;9.70;1.00;;;;;;6126113;23;20034;-87
2022/01/02 08:56:06;;;;;;;3.35;2.92;;;9.60;1.00;;;;;;6126296;23;20013;-86
2022/01/02 08:58:31;;;;;;;3.92;3.40;;;10.10;1.00;;;;;;6126836;23;20006;-87
2022/01/02 09:00:57;;;;;;;3.92;3.13;;;10.50;1.00;;;;;;6126971;23;20077;-87
2022/01/02 09:03:23;;;;;;;4.30;3.13;;;10.40;1.00;;;;;;6126020;23;20025;-87
2022/01/02 09:05:49;;;;;;;5.93;3.70;;;10.80;1.00;;;;;;6126678;23;20006;-87
2022/01/02 09:08:15;;;;;;;3.97;3.55;;;10.50;1.00;;;;;;6125531;23;20025;-87
2022/01/02 09:10:40;;;;;;;5.15;3.75;;;10.70;1.00;;;;;;6126112;23;20076;-87
2022/01/02 09:13:08;;;;;;;4.53;3.90;;;12.00;1.00;;;;;;6126168;23;20417;-86
2022/01/02 09:15:34;;;;;;;4.65;3.72;;;12.20;1.00;;;;;;6125773;23;20022;-87
2022/01/02 09:18:00;;;;;;;4.20;3.63;;;11.40;1.00;;;;;;6125805;23;19998;-87
2022/01/02 09:20:25;;;;;;;3.90;3.50;;;12.30;1.00;;;;;;6125303;23;20352;-87
2022/01/02 09:22:51;;;;;;;4.72;3.42;;;13.90;1.00;;;;;;6126044;23;20012;-87
2022/01/02 09:25:17;;;;;;;4.95;4.10;;;14.20;1.00;;;;;;6126130;23;20006;-87
2022/01/02 09:27:44;;;;;;;4.03;3.63;;;13.20;1.00;;;;;;6126412;23;20483;-87
2022/01/02 09:30:10;;;;;;;5.78;4.20;;;13.30;1.00;;;;;;6126452;23;20033;-87
2022/01/02 09:32:37;;;;;;;4.90;3.92;;;17.10;1.00;;;;;;6099569;23;20017;-87
2022/01/02 09:35:07;;;;;;;5.43;4.00;;;17.80;1.00;;;;;;6126488;23;20109;-87
2022/01/02 09:37:34;;;;;;;4.10;3.55;;;19.00;1.00;;;;;;6125307;23;20006;-87
2022/01/02 09:40:00;;;;;;;4.13;3.75;;;17.20;1.00;;;;;;6099999;23;20430;-87
2022/01/02 09:42:26;;;;;;;4.97;3.42;;;19.10;1.00;;;;;;6126062;23;20002;-87
2022/01/02 09:44:52;;;;;;;4.35;3.60;;;19.20;1.00;;;;;;6125371;23;20006;-87
2022/01/02 09:47:20;;;;;;;4.30;3.63;;;20.80;1.00;;;;;;6125576;23;20006;-87
2022/01/02 09:49:47;;;;;;;3.85;3.28;;;21.40;1.00;;;;;;6124775;23;20029;-87
2022/01/02 09:52:12;;;;;;;4.13;3.33;;;22.70;1.00;;;;;;6125850;23;20082;-87
2022/01/02 09:54:38;;;;;;;4.05;3.65;;;22.70;1.00;;;;;;6125921;23;20057;-87
2022/01/02 09:57:04;;;;;;;3.30;3.00;;;21.90;1.00;;;;;;6125872;23;20246;-87
2022/01/02 09:59:30;;;;;;;3.53;3.22;;;21.90;1.00;;;;;;6125461;23;20345;-87
2022/01/02 10:01:56;;;;;;;4.43;4.03;;;22.20;1.00;;;;;;6125922;23;19997;-87
2022/01/02 10:04:32;;;;;;;4.13;3.50;;;22.70;1.00;;;;;;6099040;23;20009;-87
2022/01/02 10:06:58;;;;;;;3.65;3.30;;;21.60;1.00;;;;;;6125582;23;20029;-87
2022/01/02 10:09:34;;;;;;;3.40;3.10;;;19.70;1.00;;;;;;6125297;23;20005;-88
2022/01/02 10:12:29;;;;;;;3.40;3.10;;;18.20;1.00;;;;;;6125848;23;20049;-87
2022/01/02 10:15:19;;;;;;;3.15;2.85;;;19.10;1.00;;;;;;6095006;23;20018;-87
2022/01/02 10:18:00;;;;;;;4.57;3.20;;;18.80;1.00;;;;;;6125026;23;20037;-87
2022/01/02 10:20:30;;;;;;;4.35;3.13;;;17.70;1.00;;;;;;6124536;23;20002;-87
2022/01/02 10:23:05;;;;;;;4.55;3.25;;;16.10;1.00;;;;;;6125338;23;20002;-87
2022/01/02 10:25:59;;;;;;;4.00;3.40;;;15.50;1.00;;;;;;6125333;23;20005;-87
2022/01/02 10:28:38;;;;;;;4.88;3.08;;;15.00;1.00;;;;;;6126340;23;20374;-87
2022/01/02 10:31:10;;;;;;;3.40;3.00;;;14.90;1.00;;;;;;6124784;23;20012;-87
2022/01/02 10:34:07;;;;;;;3.03;2.72;;;16.50;1.00;;;;;;6125006;23;20013;-87
2022/01/02 10:36:36;;;;;;;4.72;2.90;;;19.10;1.00;;;;;;5979550;24;20019;-87
2022/01/02 10:39:11;;;;;;;3.83;3.40;;;20.30;1.00;;;;;;5979198;23;20012;-87
2022/01/02 10:41:38;;;;;;;2.88;2.58;;;20.00;1.00;;;;;;5979518;23;20008;-87
2022/01/02 10:44:19;;;;;;;3.50;3.10;;;18.90;1.00;;;;;;5979039;23;20099;-87
2022/01/02 10:47:16;;;;;;;3.42;3.13;;;20.10;1.00;;;;;;5955405;24;20332;-87
2022/01/02 10:49:47;;;;;;;3.28;2.90;;;19.50;1.00;;;;;;5978793;24;20020;-87
2022/01/02 10:52:28;;;;;;;3.05;2.75;;;20.00;1.00;;;;;;5979803;24;20008;-86
2022/01/02 10:54:56;;;;;;;3.08;2.78;;;19.70;1.00;;;;;;5979504;24;20016;-87
2022/01/02 10:57:22;;;;;;;2.67;2.47;;;18.80;1.00;;;;;;5979488;23;20004;-87
2022/01/02 10:59:48;;;;;;;3.22;2.92;;;19.20;1.00;;;;;;5979118;24;20443;-87
2022/01/02 11:02:15;;;;;;;3.70;2.85;;;18.80;1.00;;;;;;5978767;23;20079;-87
2022/01/02 11:04:47;;;;;;;3.90;3.15;;;18.40;1.00;;;;;;5978821;23;20135;-87
2022/01/02 11:07:19;;;;;;;4.35;2.90;;;17.80;1.00;;;;;;5980444;23;20397;-87
2022/01/02 11:09:47;;;;;;;3.13;2.83;;;17.50;1.00;;;;;;5981565;23;20047;-87
2022/01/02 11:12:13;;;;;;;3.15;2.85;;;19.70;1.00;;;;;;6058907;23;20061;-87
2022/01/02 11:14:40;;;;;;;3.45;3.15;;;19.10;1.00;;;;;;6126550;23;20018;-87
2022/01/02 11:17:06;;;;;;;5.88;4.50;;;19.10;1.00;;;;;;6127005;23;20006;-87
2022/01/02 11:19:32;;;;;;;9.35;6.20;;;19.10;1.00;;;;;;6126803;23;20010;-87
2022/01/02 11:22:00;;;;;;;6.05;5.45;;;18.50;1.00;;;;;;6126825;23;20377;-87
2022/01/02 11:24:28;;;;;;;7.45;5.97;;;18.00;1.00;;;;;;6127836;23;20082;-87
2022/01/02 11:27:03;;;;;;;9.35;6.13;;;16.80;1.00;;;;;;6126326;23;20002;-87
2022/01/02 11:29:30;;;;;;;9.60;7.43;;;16.20;1.00;;;;;;6127183;23;20035;-87
2022/01/02 11:31:56;;;;;;;9.27;6.90;;;15.80;1.00;;;;;;6126180;23;20044;-87
2022/01/02 11:34:24;;;;;;;7.53;6.70;;;15.70;1.00;;;;;;6127115;23;20376;-87
2022/01/02 11:36:50;;;;;;;8.43;7.10;;;15.80;1.00;;;;;;6127557;23;20455;-87
2022/01/02 11:39:16;;;;;;;8.40;7.45;;;15.60;1.00;;;;;;6127121;23;20424;-87
2022/01/02 11:41:44;;;;;;;8.77;7.88;;;16.00;1.00;;;;;;6101335;23;20014;-87
2022/01/02 11:44:32;;;;;;;7.65;6.85;;;17.00;1.00;;;;;;6127263;23;20002;-87
2022/01/02 11:46:59;;;;;;;8.85;7.28;;;17.70;1.00;;;;;;6122575;23;20006;-87
2022/01/02 11:49:36;;;;;;;10.70;7.63;;;17.80;1.00;;;;;;6126989;23;20012;-87
2022/01/02 11:52:06;;;;;;;8.52;6.88;;;17.40;1.00;;;;;;6126681;23;20010;-87
2022/01/02 11:54:32;;;;;;;8.60;6.88;;;17.00;1.00;;;;;;6127259;23;20026;-87
2022/01/02 11:57:11;;;;;;;7.53;6.40;;;16.60;1.00;;;;;;6127396;23;20006;-87
2022/01/02 11:59:39;;;;;;;5.60;5.00;;;16.50;1.00;;;;;;6126031;23;20348;-87
2022/01/02 12:02:10;;;;;;;7.03;5.65;;;16.00;1.00;;;;;;6126175;23;20333;-87
2022/01/02 12:05:02;;;;;;;6.50;5.32;;;15.50;1.00;;;;;;6127002;23;20031;-86
2022/01/02 12:07:37;;;;;;;4.97;4.28;;;15.30;1.00;;;;;;6127525;23;20006;-87
2022/01/02 12:10:19;;;;;;;7.65;6.72;;;15.30;1.00;;;;;;6125880;23;20002;-87
2022/01/02 12:12:57;;;;;;;7.32;5.78;;;15.20;1.00;;;;;;6127128;23;20516;-87
2022/01/02 12:15:43;;;;;;;6.05;5.45;;;16.00;1.00;;;;;;6125525;23;20116;-87
2022/01/02 12:18:29;;;;;;;6.30;5.45;;;18.70;1.00;;;;;;6100993;23;20033;-87
2022/01/02 12:20:57;;;;;;;5.25;4.40;;;20.20;1.00;;;;;;6127460;23;20010;-87
2022/01/02 12:23:35;;;;;;;7.18;5.40;;;20.70;1.00;;;;;;6126439;23;20341;-87
2022/01/02 12:26:12;;;;;;;8.40;6.95;;;20.00;1.00;;;;;;6126523;23;20010;-87
2022/01/02 12:28:39;;;;;;;7.53;6.00;;;18.60;1.00;;;;;;6126335;23;20053;-87
2022/01/02 12:31:06;;;;;;;7.82;5.88;;;17.80;1.00;;;;;;6125658;23;20006;-87
2022/01/02 12:33:33;;;;;;;6.60;5.90;;;17.80;1.00;;;;;;6126388;23;20010;-87
2022/01/02 12:36:16;;;;;;;6.97;6.28;;;17.50;1.00;;;;;;6126931;23;20073;-87
2022/01/02 12:38:50;;;;;;;8.82;6.85;;;17.80;1.00;;;;;;6126547;23;20029;-87
2022/01/02 12:41:17;;;;;;;6.82;6.13;;;17.20;1.00;;;;;;6126029;23;20093;-87
2022/01/02 12:43:53;;;;;;;8.25;6.50;;;17.10;1.00;;;;;;6126136;23;20002;-87
2022/01/02 12:46:43;;;;;;;7.18;6.18;;;17.20;1.00;;;;;;6125156;23;20009;-87
2022/01/02 12:49:19;;;;;;;7.10;5.80;;;16.90;1.00;;;;;;6126055;23;20456;-87
2022/01/02 12:51:56;;;;;;;6.75;5.85;;;16.60;1.00;;;;;;6125567;23;19998;-87
2022/01/02 12:54:24;;;;;;;7.60;6.00;;;16.30;1.00;;;;;;6126316;23;20074;-86
2022/01/02 12:56:55;;;;;;;7.72;6.00;;;16.30;1.00;;;;;;6125952;23;20061;-86
2022/01/02 12:59:31;;;;;;;6.38;5.78;;;16.30;1.00;;;;;;6125591;23;20485;-87
2022/01/02 13:02:06;;;;;;;7.25;6.55;;;16.40;1.00;;;;;;6126523;23;20062;-87
2022/01/02 13:04:38;;;;;;;8.48;6.38;;;16.20;1.00;;;;;;6125972;23;20014;-87
2022/01/02 13:07:16;;;;;;;6.53;5.60;;;16.10;1.00;;;;;;6125468;23;19998;-87
2022/01/02 13:09:45;;;;;;;6.47;5.45;;;16.00;1.00;;;;;;6126278;23;20010;-87
2022/01/02 13:12:14;;;;;;;5.28;4.78;;;15.40;1.00;;;;;;6125857;23;20010;-86
2022/01/02 13:14:54;;;;;;;6.22;5.00;;;15.10;1.00;;;;;;6125144;23;20018;-86